Time;durP1;ratioP1;P1;durP2;ratioP2;P2;SDS_P1;SDS_P2;PMS_P1;PMS_P2;Temp;Humidity;BMP_temperature;BMP_pressure;BME280_temperature;BME280_humidity;BME280_pressure;Samples;Min_cycle;Max_cycle;Signal;HPM_P1;HPM_P2
2021/08/16 00:01:57;;;;;;;;;4.00;4.00;;;;;21.67;54.90;101142.16;4946958;28;45610;-69
2021/08/16 00:04:23;;;;;;;;;4.00;3.00;;;;;21.63;54.68;101147.13;4951250;28;47122;-66
2021/08/16 00:06:48;;;;;;;;;5.50;4.00;;;;;21.57;54.26;101142.63;4947201;28;45617;-66
2021/08/16 00:09:13;;;;;;;;;4.00;2.50;;;;;21.54;54.04;101151.13;4949617;28;45752;-69
2021/08/16 00:11:39;;;;;;;;;3.25;2.00;;;;;21.50;53.55;101149.88;4946064;28;45437;-66
2021/08/16 00:14:05;;;;;;;;;5.00;3.00;;;;;21.48;53.64;101162.69;4957530;28;46507;-68
2021/08/16 00:16:33;;;;;;;;;3.50;2.00;;;;;21.45;53.64;101157.75;4963601;28;45452;-66
2021/08/16 00:18:59;;;;;;;;;4.50;2.25;;;;;21.41;53.49;101162.72;4951486;28;45527;-69
2021/08/16 00:21:25;;;;;;;;;5.00;2.25;;;;;21.37;53.81;101161.47;4953612;28;45441;-67
2021/08/16 00:23:50;;;;;;;;;5.00;2.75;;;;;21.35;53.42;101160.84;4956813;28;45463;-68
2021/08/16 00:26:15;;;;;;;;;5.50;2.00;;;;;21.33;53.37;101157.53;4953321;28;45621;-65
2021/08/16 00:28:41;;;;;;;;;2.50;1.25;;;;;21.33;53.12;101162.09;4954103;28;46272;-69
2021/08/16 00:31:07;;;;;;;;;2.00;2.00;;;;;21.27;53.18;101156.53;4959850;28;45606;-68
2021/08/16 00:33:33;;;;;;;;;2.00;1.25;;;;;21.24;53.26;101156.09;4951797;28;47337;-68
2021/08/16 00:35:59;;;;;;;;;3.25;2.00;;;;;21.24;53.48;101151.56;4954249;28;45840;-68
2021/08/16 00:38:24;;;;;;;;;3.00;3.00;;;;;21.23;53.49;101147.22;4946963;28;45659;-70
2021/08/16 00:40:50;;;;;;;;;3.00;2.00;;;;;21.22;53.13;101152.81;4954458;28;45612;-71
2021/08/16 00:43:16;;;;;;;;;4.50;3.00;;;;;21.18;53.48;101136.25;4952861;28;46774;-68
2021/08/16 00:45:42;;;;;;;;;2.75;2.25;;;;;21.12;53.98;101141.66;4953204;28;45526;-69
2021/08/16 00:48:09;;;;;;;;;4.00;3.00;;;;;21.08;55.02;101138.56;4948627;28;45574;-66
2021/08/16 00:50:35;;;;;;;;;2.00;2.00;;;;;21.06;53.61;101143.31;4945914;28;45568;-71
2021/08/16 00:53:01;;;;;;;;;2.75;1.00;;;;;21.03;54.23;101132.97;4949823;28;45704;-66
2021/08/16 00:55:26;;;;;;;;;3.25;1.25;;;;;21.02;54.12;101136.72;4950088;28;45819;-66
2021/08/16 00:57:54;;;;;;;;;1.50;1.50;;;;;20.99;53.82;101135.28;4949282;28;45571;-72
2021/08/16 01:00:20;;;;;;;;;2.50;2.00;;;;;20.98;53.62;101130.09;4938044;28;45813;-69
2021/08/16 01:02:47;;;;;;;;;2.00;2.00;;;;;20.97;53.38;101131.97;4951652;28;46087;-71
2021/08/16 01:05:14;;;;;;;;;3.00;2.25;;;;;20.96;53.21;101129.47;4938180;28;45488;-69
2021/08/16 01:07:42;;;;;;;;;1.75;1.00;;;;;20.95;53.17;101130.53;4948006;28;45803;-68
2021/08/16 01:10:08;;;;;;;;;4.00;2.00;;;;;20.94;53.23;101128.84;4948024;28;45598;-66
2021/08/16 01:12:35;;;;;;;;;4.50;2.00;;;;;20.95;53.27;101127.84;4941692;28;45392;-67
2021/08/16 01:15:01;;;;;;;;;3.00;1.00;;;;;20.94;53.27;101118.09;4951245;28;45496;-69
2021/08/16 01:17:27;;;;;;;;;1.75;1.75;;;;;20.93;53.38;101117.28;4951857;28;45451;-69
2021/08/16 01:19:52;;;;;;;;;1.00;1.00;;;;;20.93;53.21;101124.53;4951185;28;45607;-68
2021/08/16 01:22:21;;;;;;;;;1.00;1.00;;;;;20.91;53.02;101116.66;4961131;28;46064;-70
2021/08/16 01:24:46;;;;;;;;;1.75;1.75;;;;;20.89;53.79;101121.41;4954505;28;45357;-69
2021/08/16 01:27:13;;;;;;;;;4.00;1.75;;;;;20.90;52.99;101116.88;4950731;28;45508;-69
2021/08/16 01:29:39;;;;;;;;;1.75;1.00;;;;;20.90;53.07;101122.25;4946450;28;45551;-69
2021/08/16 01:32:05;;;;;;;;;2.00;2.00;;;;;20.89;53.64;101126.78;4955951;28;45342;-68
2021/08/16 01:34:31;;;;;;;;;2.00;1.00;;;;;20.89;52.74;101120.59;4948037;28;46045;-68
2021/08/16 01:36:57;;;;;;;;;3.00;2.25;;;;;20.87;53.04;101122.66;4951244;28;45700;-69
2021/08/16 01:39:23;;;;;;;;;2.00;2.00;;;;;20.89;52.67;101125.97;4962215;28;45591;-66
2021/08/16 01:41:48;;;;;;;;;1.00;1.00;;;;;20.88;52.67;101132.38;4968960;28;46231;-65
2021/08/16 01:44:16;;;;;;;;;1.00;1.00;;;;;20.86;52.82;101134.44;4960956;28;45581;-69
2021/08/16 01:46:42;;;;;;;;;1.00;0.50;;;;;20.84;53.09;101137.34;4946035;28;45504;-71
2021/08/16 01:49:08;;;;;;;;;2.50;1.75;;;;;20.81;53.24;101138.56;4956334;28;45551;-69
2021/08/16 01:51:35;;;;;;;;;3.75;2.00;;;;;20.81;52.78;101140.44;4940412;28;46530;-67
2021/08/16 01:54:00;;;;;;;;;4.00;1.00;;;;;20.80;52.66;101133.44;4954721;28;45471;-71
2021/08/16 01:56:26;;;;;;;;;2.00;2.00;;;;;20.79;52.95;101135.25;4950665;28;45536;-68
2021/08/16 01:58:51;;;;;;;;;2.75;1.00;;;;;20.79;52.84;101132.56;4950849;28;45523;-69
2021/08/16 02:01:17;;;;;;;;;2.25;1.00;;;;;20.79;53.07;101132.56;4958106;28;46412;-66
2021/08/16 02:03:42;;;;;;;;;1.50;1.50;;;;;20.79;52.87;101132.56;4952418;28;45847;-70
2021/08/16 02:06:08;;;;;;;;;2.50;2.00;;;;;20.76;52.84;101127.63;4947385;28;46054;-71
2021/08/16 02:08:33;;;;;;;;;1.00;1.00;;;;;20.76;52.97;101138.38;4958921;28;45831;-71
2021/08/16 02:10:59;;;;;;;;;1.00;1.00;;;;;20.75;53.37;101139.41;4955239;28;45574;-68
2021/08/16 02:13:24;;;;;;;;;3.50;1.75;;;;;20.75;53.26;101128.66;4951718;28;45520;-66
2021/08/16 02:15:49;;;;;;;;;3.50;1.25;;;;;20.73;53.54;101137.97;4947269;28;45903;-65
2021/08/16 02:18:15;;;;;;;;;1.00;1.00;;;;;20.72;53.25;101133.63;4944343;28;45911;-67
2021/08/16 02:20:40;;;;;;;;;3.00;1.75;;;;;20.73;53.38;101140.66;4948362;28;46329;-66
2021/08/16 02:23:05;;;;;;;;;2.00;2.00;;;;;20.75;53.76;101135.91;4951156;28;45620;-67
2021/08/16 02:25:31;;;;;;;;;1.75;1.75;;;;;20.77;52.90;101131.13;4955183;28;45373;-72
2021/08/16 02:27:56;;;;;;;;;1.00;1.00;;;;;20.74;54.13;101137.75;4961594;28;45441;-69
2021/08/16 02:30:22;;;;;;;;;3.75;1.00;;;;;20.74;53.37;101135.06;4948965;28;46055;-69
2021/08/16 02:32:48;;;;;;;;;1.00;0.75;;;;;20.72;54.24;101131.78;4947713;28;45900;-69
2021/08/16 02:35:13;;;;;;;;;4.75;2.00;;;;;20.72;54.04;101131.78;4950243;28;45514;-65
2021/08/16 02:37:40;;;;;;;;;4.50;2.00;;;;;20.73;53.78;101138.78;4961231;28;45585;-69
2021/08/16 02:40:07;;;;;;;;;5.00;1.50;;;;;20.72;53.90;101138.97;4951372;28;45864;-71
2021/08/16 02:42:32;;;;;;;;;2.00;2.00;;;;;20.71;54.18;101140.84;4946203;28;47599;-69
2021/08/16 02:44:58;;;;;;;;;2.75;1.75;;;;;20.73;54.35;101133.41;4948193;28;45743;-69
2021/08/16 02:47:23;;;;;;;;;2.75;2.50;;;;;20.73;54.10;101133.41;4955352;28;45560;-68
2021/08/16 02:49:49;;;;;;;;;2.25;1.00;;;;;20.71;54.08;101140.84;4946529;28;46496;-68
2021/08/16 02:52:16;;;;;;;;;3.00;2.00;;;;;20.72;54.47;101117.50;4933205;28;45352;-69
2021/08/16 02:54:42;;;;;;;;;2.50;1.00;;;;;20.72;54.98;101138.97;4948446;28;45436;-71
2021/08/16 02:57:07;;;;;;;;;2.25;1.50;;;;;20.72;55.12;101121.03;4953681;28;45507;-71
2021/08/16 02:59:33;;;;;;;;;1.00;1.00;;;;;20.74;54.69;101120.81;4953092;28;46159;-67
2021/08/16 03:01:58;;;;;;;;;2.00;1.25;;;;;20.74;54.61;101127.00;4930888;28;45782;-68
2021/08/16 03:04:24;;;;;;;;;2.25;2.00;;;;;20.74;54.63;101129.69;4949581;28;45998;-69
2021/08/16 03:06:49;;;;;;;;;3.00;2.00;;;;;20.74;54.51;101127.00;4955083;28;45580;-65
2021/08/16 03:09:15;;;;;;;;;3.25;1.25;;;;;20.73;54.59;101133.41;4944304;28;46580;-69
2021/08/16 03:11:40;;;;;;;;;2.00;1.00;;;;;20.73;54.65;101137.97;4955046;28;45463;-71
2021/08/16 03:14:05;;;;;;;;;3.00;2.00;;;;;20.70;54.70;101135.72;4956156;28;45448;-67
2021/08/16 03:16:31;;;;;;;;;1.00;1.00;;;;;20.67;55.18;101141.47;4943440;28;45675;-65
2021/08/16 03:18:56;;;;;;;;;3.00;2.25;;;;;20.66;55.15;101137.13;4944793;28;45779;-69
2021/08/16 03:21:22;;;;;;;;;3.00;1.00;;;;;20.65;54.99;101133.63;4945723;28;45610;-72
2021/08/16 03:23:47;;;;;;;;;5.75;2.00;;;;;20.64;55.52;101134.66;4930341;28;45515;-71
2021/08/16 03:26:12;;;;;;;;;3.25;1.75;;;;;20.65;55.38;101138.16;4941985;28;45901;-70
2021/08/16 03:28:38;;;;;;;;;2.75;2.00;;;;;20.65;55.69;101136.31;4949694;28;45717;-69
2021/08/16 03:31:03;;;;;;;;;2.25;2.25;;;;;20.66;55.76;101137.13;4953525;28;45761;-69
2021/08/16 03:33:29;;;;;;;;;2.50;2.00;;;;;20.66;55.80;101135.28;4937990;28;45462;-67
2021/08/16 03:35:54;;;;;;;;;3.50;2.50;;;;;20.64;55.34;101134.66;4949492;28;45838;-72
2021/08/16 03:38:19;;;;;;;;;3.00;3.00;;;;;20.58;56.08;101128.25;4951591;28;46174;-69
2021/08/16 03:40:45;;;;;;;;;3.75;2.50;;;;;20.44;56.31;101125.72;4953308;28;45617;-67
2021/08/16 03:43:10;;;;;;;;;9.25;3.00;;;;;20.36;57.07;101132.13;4935123;28;45919;-70
2021/08/16 03:45:36;;;;;;;;;4.25;3.00;;;;;20.27;57.59;101134.16;4952308;28;45576;-67
2021/08/16 03:48:01;;;;;;;;;6.75;4.25;;;;;20.17;57.58;101134.56;4960134;28;45550;-70
2021/08/16 03:50:26;;;;;;;;;3.00;3.00;;;;;20.15;57.79;101133.94;4963324;28;45412;-68
2021/08/16 03:52:52;;;;;;;;;4.75;3.25;;;;;20.14;57.28;101128.78;4948025;28;45357;-67
2021/08/16 03:55:17;;;;;;;;;2.50;1.00;;;;;20.14;57.75;101128.78;4955397;28;45571;-67
2021/08/16 03:57:43;;;;;;;;;3.00;3.00;;;;;20.16;57.81;101134.78;4954310;28;46478;-71
2021/08/16 04:00:11;;;;;;;;;5.50;4.75;;;;;20.17;57.64;101131.03;4937978;28;45613;-67
2021/08/16 04:02:40;;;;;;;;;5.75;3.00;;;;;20.16;57.77;101122.19;4952373;28;45496;-71
2021/08/16 04:05:06;;;;;;;;;3.75;3.00;;;;;20.18;57.74;101132.72;4954482;28;46918;-69
2021/08/16 04:07:31;;;;;;;;;3.25;3.25;;;;;20.16;58.08;101138.28;4953857;28;47063;-70
2021/08/16 04:09:56;;;;;;;;;4.75;3.00;;;;;20.16;58.08;101138.28;4957962;28;46855;-68
2021/08/16 04:12:22;;;;;;;;;4.75;2.50;;;;;20.16;58.03;101140.13;4954144;28;45527;-67
2021/08/16 04:14:47;;;;;;;;;1.50;1.50;;;;;20.16;57.67;101138.28;4948217;28;45672;-69
2021/08/16 04:17:13;;;;;;;;;5.00;1.75;;;;;20.15;57.39;101146.50;4956050;28;46430;-71
2021/08/16 04:19:39;;;;;;;;;3.25;2.75;;;;;20.13;58.10;101144.06;4955988;28;47516;-69
2021/08/16 04:22:04;;;;;;;;;3.50;2.75;;;;;20.14;57.71;101144.88;4955533;28;45482;-68
2021/08/16 04:24:30;;;;;;;;;3.50;2.00;;;;;20.12;57.36;101146.94;4967568;28;46808;-71
2021/08/16 04:26:55;;;;;;;;;3.25;2.75;;;;;20.10;57.39;101151.66;4957022;28;46896;-71
2021/08/16 04:29:20;;;;;;;;;4.75;2.00;;;;;20.07;57.65;101146.72;4957303;28;45601;-70
2021/08/16 04:31:46;;;;;;;;;3.25;3.25;;;;;20.06;57.55;101151.25;4961575;28;45622;-70
2021/08/16 04:34:11;;;;;;;;;1.50;1.50;;;;;20.02;57.69;101147.31;4952891;28;45733;-71
2021/08/16 04:36:36;;;;;;;;;3.25;2.75;;;;;20.00;56.84;101149.38;4962055;28;45642;-69
2021/08/16 04:39:02;;;;;;;;;2.00;2.00;;;;;19.92;57.26;101147.69;4954145;28;47048;-69
2021/08/16 04:41:27;;;;;;;;;3.25;2.25;;;;;19.88;57.81;101146.47;4955883;28;45534;-71
2021/08/16 04:43:53;;;;;;;;;2.50;2.00;;;;;19.82;57.47;101152.59;4953111;28;45470;-68
2021/08/16 04:46:18;;;;;;;;;2.50;2.00;;;;;19.80;57.86;101151.97;4947453;28;46699;-67
2021/08/16 04:48:43;;;;;;;;;2.00;2.00;;;;;19.76;58.14;101156.09;4951320;28;45622;-70
2021/08/16 04:51:09;;;;;;;;;2.00;2.00;;;;;19.70;57.70;101148.84;4954410;28;45332;-69
2021/08/16 04:53:34;;;;;;;;;4.00;2.00;;;;;19.70;57.97;101154.19;4958235;28;45495;-69
2021/08/16 04:55:59;;;;;;;;;1.75;1.75;;;;;19.70;57.94;101156.88;4952363;28;45507;-69
2021/08/16 04:58:25;;;;;;;;;1.75;1.25;;;;;19.71;58.26;101158.56;4947808;28;45493;-71
2021/08/16 05:00:50;;;;;;;;;1.25;1.25;;;;;19.71;58.29;101167.41;4957297;28;45421;-70
2021/08/16 05:03:16;;;;;;;;;2.25;0.50;;;;;19.74;58.18;101166.19;4958850;28;45533;-68
2021/08/16 05:05:48;;;;;;;;;2.00;2.00;;;;;19.76;58.07;101169.50;4951492;28;47217;-68
2021/08/16 05:08:13;;;;;;;;;2.00;2.00;;;;;19.76;57.81;101164.16;4945579;28;45777;-67
2021/08/16 05:10:40;;;;;;;;;2.50;1.25;;;;;19.76;58.36;101162.28;4951583;28;45409;-71
2021/08/16 05:13:05;;;;;;;;;3.00;1.75;;;;;19.75;57.77;101163.28;4957079;28;45545;-70
2021/08/16 05:15:31;;;;;;;;;1.25;1.00;;;;;19.73;57.88;101154.66;4958887;28;45621;-69
2021/08/16 05:17:58;;;;;;;;;2.25;2.00;;;;;19.75;57.85;101162.47;4935670;28;45995;-68
2021/08/16 05:20:24;;;;;;;;;1.75;1.50;;;;;19.77;57.81;101165.78;4936606;28;45725;-70
2021/08/16 05:22:49;;;;;;;;;4.50;1.00;;;;;19.78;58.30;101167.44;4948950;28;45582;-70
2021/08/16 05:25:16;;;;;;;;;3.50;1.00;;;;;19.82;57.58;101174.06;4946576;28;45673;-67
2021/08/16 05:27:42;;;;;;;;;1.00;1.00;;;;;19.81;57.79;101175.09;4943617;28;45640;-68
2021/08/16 05:30:08;;;;;;;;;2.00;2.00;;;;;19.82;57.86;101170.56;4947372;28;45508;-69
2021/08/16 05:32:34;;;;;;;;;2.00;1.00;;;;;19.82;57.78;101181.28;4943952;28;45589;-70
2021/08/16 05:34:59;;;;;;;;;4.00;2.00;;;;;19.81;58.02;101183.16;4951786;28;46221;-70
2021/08/16 05:37:24;;;;;;;;;2.00;0.75;;;;;19.83;57.68;101196.34;4954508;28;45385;-72
2021/08/16 05:39:50;;;;;;;;;2.50;0.00;;;;;19.82;57.89;101190.16;4940795;28;45716;-67
2021/08/16 05:42:16;;;;;;;;;1.50;1.50;;;;;19.83;58.29;101185.59;4936362;28;45532;-68
2021/08/16 05:44:41;;;;;;;;;3.00;2.00;;;;;19.85;57.87;101189.75;4947343;28;46365;-70
2021/08/16 05:47:07;;;;;;;;;1.00;1.00;;;;;19.89;58.12;101184.81;4939176;28;45433;-70
2021/08/16 05:49:33;;;;;;;;;1.75;1.75;;;;;19.92;57.63;101189.78;4946867;28;45666;-70
2021/08/16 05:51:59;;;;;;;;;1.25;1.00;;;;;19.95;57.90;101198.28;4942024;28;45348;-66
2021/08/16 05:54:24;;;;;;;;;4.50;1.50;;;;;19.96;57.34;101202.59;4942820;28;45511;-69
2021/08/16 05:56:51;;;;;;;;;3.75;1.75;;;;;19.95;57.83;101200.09;4952806;28;45538;-70
2021/08/16 05:59:16;;;;;;;;;4.00;1.00;;;;;19.93;57.93;101208.38;4937288;28;46921;-70
2021/08/16 06:01:42;;;;;;;;;1.50;1.00;;;;;19.94;57.74;101214.56;4943680;28;45526;-70
2021/08/16 06:04:08;;;;;;;;;2.25;1.00;;;;;19.93;57.76;101207.53;4942409;28;46504;-70
2021/08/16 06:06:34;;;;;;;;;2.75;1.00;;;;;19.94;57.72;101212.69;4940468;28;45631;-70
2021/08/16 06:09:00;;;;;;;;;1.00;1.00;;;;;19.96;58.06;101207.97;4951088;28;45569;-72
2021/08/16 06:11:25;;;;;;;;;2.25;1.00;;;;;19.97;57.71;101209.59;4953862;28;45479;-71
2021/08/16 06:13:51;;;;;;;;;4.00;2.00;;;;;19.96;57.95;101207.16;4936695;28;45521;-67
2021/08/16 06:16:17;;;;;;;;;2.50;1.00;;;;;19.98;58.00;101213.97;4956922;28;45479;-71
2021/08/16 06:18:43;;;;;;;;;2.25;2.00;;;;;20.03;58.39;101217.88;4942900;28;45508;-72
2021/08/16 06:21:08;;;;;;;;;2.75;2.25;;;;;20.06;58.03;101217.50;4951992;28;45535;-69
2021/08/16 06:23:34;;;;;;;;;1.50;1.00;;;;;20.07;57.85;101222.66;4955867;28;45469;-67
2021/08/16 06:25:59;;;;;;;;;2.50;1.25;;;;;20.06;57.78;101221.00;4950376;28;45856;-71
2021/08/16 06:28:25;;;;;;;;;1.25;1.25;;;;;20.11;57.76;101228.47;4954238;28;45660;-72
2021/08/16 06:30:50;;;;;;;;;2.00;2.00;;;;;20.11;57.42;101215.88;4944505;28;45554;-71
2021/08/16 06:33:16;;;;;;;;;2.00;1.25;;;;;20.15;57.90;101216.28;4928679;28;48108;-70
2021/08/16 06:35:41;;;;;;;;;2.75;1.00;;;;;20.23;58.04;101216.13;4926259;28;45880;-71
2021/08/16 06:38:19;;;;;;;;;1.75;1.00;;;;;20.29;57.67;101226.03;4934396;28;45977;-71
2021/08/16 06:40:45;;;;;;;;;1.00;1.00;;;;;20.36;57.83;101226.06;4942401;28;45391;-72
2021/08/16 06:43:10;;;;;;;;;2.00;1.25;;;;;20.42;57.26;101222.56;4949295;28;46224;-67
2021/08/16 06:45:36;;;;;;;;;1.25;1.25;;;;;20.46;57.61;101231.06;4949726;28;45424;-69
2021/08/16 06:48:03;;;;;;;;;0.75;0.25;;;;;20.51;57.38;101233.97;4957725;28;45568;-72
2021/08/16 06:50:28;;;;;;;;;1.75;1.00;;;;;20.54;57.22;101231.69;4950820;28;45433;-72
2021/08/16 06:52:54;;;;;;;;;1.50;0.25;;;;;20.54;57.47;101233.53;4950213;28;45601;-67
2021/08/16 06:55:19;;;;;;;;;1.00;1.00;;;;;20.54;57.36;101238.91;4955414;28;45459;-72
2021/08/16 06:57:44;;;;;;;;;1.00;1.00;;;;;20.55;57.63;101237.94;4947724;28;45720;-72
2021/08/16 07:00:10;;;;;;;;;0.50;0.50;;;;;20.53;57.25;101227.34;4946690;28;45854;-72
2021/08/16 07:02:36;;;;;;;;;1.00;1.00;;;;;20.54;57.46;101236.22;4947047;28;45675;-73
2021/08/16 07:05:01;;;;;;;;;1.00;0.50;;;;;20.50;57.28;101235.81;4956573;28;45832;-67
2021/08/16 07:07:26;;;;;;;;;2.00;2.00;;;;;20.53;57.36;101237.28;4946602;28;45539;-67
2021/08/16 07:09:52;;;;;;;;;2.75;1.00;;;;;20.54;57.21;101239.72;4948615;28;49260;-67
2021/08/16 07:12:17;;;;;;;;;1.00;1.00;;;;;20.55;57.53;101233.38;4947694;28;50137;-68
2021/08/16 07:14:42;;;;;;;;;0.50;0.25;;;;;20.57;57.29;101239.38;4942284;28;45531;-72
2021/08/16 07:17:08;;;;;;;;;2.75;1.00;;;;;20.63;57.59;101243.09;4942359;28;45543;-70
2021/08/16 07:19:33;;;;;;;;;1.00;1.00;;;;;20.66;57.56;101245.38;4955182;28;45739;-68
2021/08/16 07:21:58;;;;;;;;;1.00;1.00;;;;;20.68;57.90;101248.69;4938774;28;45587;-71
2021/08/16 07:24:24;;;;;;;;;2.75;1.00;;;;;20.70;57.73;101252.00;4948753;28;45535;-67
2021/08/16 07:26:50;;;;;;;;;1.25;1.00;;;;;20.71;57.85;101253.66;4941690;28;45540;-71
2021/08/16 07:29:16;;;;;;;;;1.00;1.00;;;;;20.75;57.52;101246.84;4947930;28;46139;-72
2021/08/16 07:31:41;;;;;;;;;1.00;1.00;;;;;20.78;57.64;101248.31;4939779;28;46401;-71
2021/08/16 07:34:06;;;;;;;;;0.75;0.75;;;;;20.79;57.48;101250.75;4942855;28;45568;-71
2021/08/16 07:36:32;;;;;;;;;1.00;1.00;;;;;20.78;57.49;101254.50;4930556;28;45417;-72
2021/08/16 07:38:57;;;;;;;;;0.00;0.00;;;;;20.76;58.52;101261.91;4939577;28;45527;-67
2021/08/16 07:41:24;;;;;;;;;1.50;0.00;;;;;20.72;58.13;101259.84;4950420;28;46152;-73
2021/08/16 07:43:49;;;;;;;;;1.00;0.00;;;;;20.69;58.37;101263.75;4946387;28;45556;-71
2021/08/16 07:46:14;;;;;;;;;0.75;0.75;;;;;20.67;58.36;101257.75;4937595;28;45495;-73
2021/08/16 07:48:40;;;;;;;;;1.25;0.00;;;;;20.67;59.40;101259.63;4938906;28;45396;-73
2021/08/16 07:51:05;;;;;;;;;1.75;0.00;;;;;20.75;59.03;101259.47;4944754;28;45503;-74
2021/08/16 07:53:31;;;;;;;;;0.50;0.50;;;;;20.82;59.20;101252.22;4944760;28;49821;-69
2021/08/16 07:55:57;;;;;;;;;2.00;0.00;;;;;20.90;59.44;101253.91;4952223;28;45460;-73
2021/08/16 07:58:22;;;;;;;;;3.00;0.75;;;;;20.96;58.97;101258.44;4929130;28;45627;-73
2021/08/16 08:00:47;;;;;;;;;0.25;0.25;;;;;20.98;59.91;101256.38;4958880;28;46007;-72
2021/08/16 08:03:13;;;;;;;;;0.50;0.50;;;;;20.97;59.41;101252.06;4933708;28;45809;-73
2021/08/16 08:05:39;;;;;;;;;1.00;1.00;;;;;20.97;59.86;101260.13;4928051;28;45543;-69
2021/08/16 08:08:05;;;;;;;;;2.00;1.00;;;;;21.00;59.43;101257.00;4949280;28;45632;-70
2021/08/16 08:10:31;;;;;;;;;2.00;0.25;;;;;21.00;58.82;101257.00;4952557;28;46292;-73
2021/08/16 08:12:56;;;;;;;;;1.00;1.00;;;;;20.97;58.84;101265.47;4941815;28;45746;-68
2021/08/16 08:15:22;;;;;;;;;0.50;0.50;;;;;20.93;58.67;101264.22;4952286;28;46495;-74
2021/08/16 08:17:49;;;;;;;;;1.00;1.00;;;;;20.91;58.79;101263.59;4956471;28;45626;-73
2021/08/16 08:20:14;;;;;;;;;1.00;0.00;;;;;20.89;58.34;101260.28;4948822;28;46724;-69
2021/08/16 08:22:40;;;;;;;;;0.25;0.25;;;;;20.88;58.88;101269.38;4930795;28;46124;-74
2021/08/16 08:25:06;;;;;;;;;1.00;1.00;;;;;20.89;59.28;101269.16;4947013;28;46011;-74
2021/08/16 08:27:32;;;;;;;;;0.25;0.00;;;;;20.98;58.94;101264.44;4954802;28;45596;-69
2021/08/16 08:29:57;;;;;;;;;1.75;1.00;;;;;21.08;59.09;101264.84;4954523;28;46607;-72
2021/08/16 08:32:23;;;;;;;;;2.00;0.00;;;;;21.21;59.13;101272.09;4949681;28;45571;-72
2021/08/16 08:34:48;;;;;;;;;1.00;0.75;;;;;21.31;58.35;101280.56;4954488;28;45850;-68
2021/08/16 08:37:19;;;;;;;;;1.00;0.25;;;;;21.45;58.29;101276.06;4957062;28;45403;-71
2021/08/16 08:39:46;;;;;;;;;1.00;1.00;;;;;21.52;58.12;101274.19;4946587;28;46174;-69
2021/08/16 08:42:17;;;;;;;;;0.00;0.00;;;;;21.56;57.78;101272.75;4945919;28;45538;-73
2021/08/16 08:44:44;;;;;;;;;1.00;1.00;;;;;21.52;57.91;101279.56;4943906;28;45785;-72
2021/08/16 08:47:12;;;;;;;;;1.00;1.00;;;;;21.51;57.84;101283.28;4955319;28;45577;-71
2021/08/16 08:49:38;;;;;;;;;1.00;0.00;;;;;21.50;58.67;101281.63;4946844;28;45682;-70
2021/08/16 08:52:04;;;;;;;;;0.00;0.00;;;;;21.50;57.91;101283.50;4948229;28;45665;-68
2021/08/16 08:54:29;;;;;;;;;0.75;0.75;;;;;21.51;57.79;101279.75;4947351;28;45462;-71
2021/08/16 08:56:56;;;;;;;;;1.00;1.00;;;;;21.48;58.01;101286.38;4948568;28;45487;-71
2021/08/16 08:59:22;;;;;;;;;1.00;1.00;;;;;21.50;58.00;101287.00;4947184;28;46457;-71
2021/08/16 09:01:58;;;;;;;;;1.50;0.75;;;;;21.51;58.17;101285.97;4953398;28;45391;-71
2021/08/16 09:04:24;;;;;;;;;0.00;0.00;;;;;21.44;57.55;101288.69;4940625;28;45999;-70
2021/08/16 09:06:49;;;;;;;;;1.00;1.00;;;;;21.41;58.19;101290.94;4945138;28;45566;-69
2021/08/16 09:09:16;;;;;;;;;1.00;1.00;;;;;21.34;58.43;101290.94;4947917;28;46377;-67
2021/08/16 09:11:46;;;;;;;;;1.00;1.00;;;;;21.32;58.69;101295.69;4946936;28;45566;-71
2021/08/16 09:14:13;;;;;;;;;1.00;1.00;;;;;21.33;58.51;101293.81;4951819;28;45625;-68
2021/08/16 09:16:39;;;;;;;;;1.75;0.50;;;;;21.37;58.38;101300.44;4953628;28;45360;-71
2021/08/16 09:19:19;;;;;;;;;0.75;0.75;;;;;21.40;58.00;101300.03;4939454;28;45530;-67
2021/08/16 09:22:09;;;;;;;;;1.00;1.00;;;;;21.42;58.36;101306.88;4944924;28;45489;-67
2021/08/16 09:24:35;;;;;;;;;1.00;1.00;;;;;21.51;58.09;101301.28;4942496;28;45541;-70
2021/08/16 09:27:06;;;;;;;;;0.00;0.00;;;;;21.62;58.29;101306.03;4950799;28;45640;-68
2021/08/16 09:29:32;;;;;;;;;0.25;0.25;;;;;21.75;58.25;101313.25;4946142;28;46164;-68
2021/08/16 09:32:03;;;;;;;;;2.00;1.00;;;;;21.83;57.96;101302.25;4937943;28;46012;-68
2021/08/16 09:34:44;;;;;;;;;2.00;1.00;;;;;21.95;57.79;101297.91;4946311;28;46012;-70
2021/08/16 09:37:18;;;;;;;;;1.75;1.00;;;;;22.07;57.37;101301.59;4952248;28;45679;-71
2021/08/16 09:39:44;;;;;;;;;2.00;1.00;;;;;22.18;57.66;101304.66;4946561;28;46337;-71
2021/08/16 09:42:10;;;;;;;;;1.00;1.00;;;;;22.27;57.23;101311.50;4941987;28;45490;-68
2021/08/16 09:44:49;;;;;;;;;1.75;0.25;;;;;22.37;57.30;101311.03;4953207;28;45817;-72
2021/08/16 09:47:15;;;;;;;;;1.00;1.00;;;;;22.35;57.63;101311.25;4942474;28;45658;-68
2021/08/16 09:49:40;;;;;;;;;0.75;0.50;;;;;22.31;58.72;101313.56;4948871;28;45409;-68
2021/08/16 09:52:11;;;;;;;;;0.00;0.00;;;;;22.31;59.48;101326.19;4958022;28;45385;-72
2021/08/16 09:54:38;;;;;;;;;1.00;1.00;;;;;22.41;58.67;101326.56;4940780;28;45471;-72
2021/08/16 09:57:05;;;;;;;;;1.00;1.00;;;;;22.57;60.59;101333.31;4945902;28;45615;-70
2021/08/16 09:59:33;;;;;;;;;2.00;1.00;;;;;22.84;58.83;101333.19;4943125;28;46041;-71
2021/08/16 10:01:59;;;;;;;;;1.00;1.00;;;;;23.23;59.18;101331.31;4946802;28;45845;-70
2021/08/16 10:04:24;;;;;;;;;1.00;1.00;;;;;23.80;57.96;101332.91;4952821;28;45417;-73
2021/08/16 10:06:52;;;;;;;;;0.25;0.25;;;;;24.43;56.18;101326.41;4946444;28;45636;-70
2021/08/16 10:09:21;;;;;;;;;3.00;1.00;;;;;24.97;54.10;101326.53;4932798;28;47099;-68
2021/08/16 10:11:48;;;;;;;;;1.75;1.00;;;;;25.44;53.37;101328.53;4929569;28;45913;-69
2021/08/16 10:14:14;;;;;;;;;1.00;1.00;;;;;26.37;52.03;101318.69;4937325;28;45967;-73
2021/08/16 10:16:44;;;;;;;;;1.00;1.00;;;;;27.32;50.43;101316.38;4946541;28;45654;-71
2021/08/16 10:19:17;;;;;;;;;1.25;1.25;;;;;28.52;48.62;101314.81;4943997;28;46362;-72
2021/08/16 10:21:43;;;;;;;;;2.00;2.00;;;;;29.75;47.32;101313.16;4937184;28;45572;-71
2021/08/16 10:24:33;;;;;;;;;1.00;1.00;;;;;30.76;44.42;101310.25;4948806;28;45585;-71
2021/08/16 10:27:07;;;;;;;;;1.00;1.00;;;;;31.19;43.06;101319.84;4939188;28;45586;-70
2021/08/16 10:29:34;;;;;;;;;2.50;2.00;;;;;31.05;41.17;101319.56;4939465;28;46655;-71
2021/08/16 10:32:00;;;;;;;;;2.00;2.00;;;;;30.52;42.22;101329.03;4946448;28;45793;-71
2021/08/16 10:34:38;;;;;;;;;1.50;0.75;;;;;29.79;42.80;101349.66;4945981;28;45668;-70
2021/08/16 10:37:09;;;;;;;;;2.00;1.00;;;;;28.95;44.10;101359.28;4942792;28;45438;-72
2021/08/16 10:39:46;;;;;;;;;1.00;1.00;;;;;28.03;46.47;101363.63;4950657;28;46423;-71
2021/08/16 10:42:17;;;;;;;;;3.25;2.00;;;;;27.14;47.94;101358.94;4949392;28;45687;-71
2021/08/16 10:44:48;;;;;;;;;1.25;1.25;;;;;26.44;49.75;101356.50;4936388;28;45533;-70
2021/08/16 10:47:28;;;;;;;;;3.25;2.00;;;;;26.16;51.16;101363.50;4947496;28;45492;-72
2021/08/16 10:50:09;;;;;;;;;2.75;2.75;;;;;26.16;52.14;101368.91;4925132;28;47633;-72
2021/08/16 10:52:37;;;;;;;;;2.00;2.00;;;;;26.04;51.22;101373.50;4931001;28;45481;-71
2021/08/16 10:55:13;;;;;;;;;2.00;2.00;;;;;25.91;51.32;101370.00;4937739;28;45788;-72
2021/08/16 10:57:40;;;;;;;;;2.00;1.75;;;;;25.86;51.62;101366.34;4962858;28;45428;-71
2021/08/16 11:00:06;;;;;;;;;2.00;2.00;;;;;25.87;51.96;101374.25;4946431;28;45579;-72
2021/08/16 11:02:33;;;;;;;;;3.00;3.00;;;;;25.83;51.46;101367.63;4942754;28;45573;-71
2021/08/16 11:04:59;;;;;;;;;2.00;2.00;;;;;25.75;51.79;101378.81;4938050;28;45566;-71
2021/08/16 11:07:25;;;;;;;;;2.75;2.00;;;;;25.50;51.57;101373.59;4951906;28;45424;-71
2021/08/16 11:09:59;;;;;;;;;2.00;2.00;;;;;25.13;51.73;101381.03;4951209;28;46289;-71
2021/08/16 11:12:34;;;;;;;;;1.25;1.25;;;;;24.67;53.12;101386.00;4949276;28;45599;-67
2021/08/16 11:15:00;;;;;;;;;1.00;1.00;;;;;24.31;53.14;101393.06;4947241;28;45467;-67
2021/08/16 11:17:27;;;;;;;;;4.25;2.00;;;;;24.04;52.50;101389.81;4944216;28;45776;-71
2021/08/16 11:19:56;;;;;;;;;2.00;1.75;;;;;23.87;52.56;101394.94;4956418;28;45686;-70
2021/08/16 11:22:22;;;;;;;;;2.00;2.00;;;;;23.83;53.09;101405.34;4945756;28;45523;-68